Time;durP1;ratioP1;P1;durP2;ratioP2;P2;SDS_P1;SDS_P2;PMS_P1;PMS_P2;Temp;Humidity;BMP_temperature;BMP_pressure;BME280_temperature;BME280_humidity;BME280_pressure;Samples;Min_cycle;Max_cycle;Signal;HPM_P1;HPM_P2
2023/08/20 00:01:57;;;;;;;5.65;4.65;;;19.00;99.90;;;;;;5035562;28;20298;-73
2023/08/20 00:04:45;;;;;;;9.20;4.65;;;18.90;99.90;;;;;;5038607;28;20197;-73
2023/08/20 00:07:32;;;;;;;8.32;4.55;;;18.80;99.90;;;;;;5039947;28;20194;-73
2023/08/20 00:10:17;;;;;;;6.68;4.40;;;18.80;99.90;;;;;;5032711;28;20241;-73
2023/08/20 00:13:02;;;;;;;7.55;4.70;;;18.80;99.90;;;;;;5035846;28;20766;-73
2023/08/20 00:15:46;;;;;;;7.53;4.93;;;18.70;99.90;;;;;;5034865;28;20689;-74
2023/08/20 00:18:31;;;;;;;7.05;4.93;;;18.70;99.90;;;;;;5040508;28;20204;-73
2023/08/20 00:21:15;;;;;;;7.90;4.95;;;18.70;99.90;;;;;;5039974;28;20206;-73
2023/08/20 00:24:00;;;;;;;10.38;5.35;;;18.60;99.90;;;;;;5039548;28;20229;-74
2023/08/20 00:26:45;;;;;;;8.23;5.13;;;18.60;99.90;;;;;;5041057;28;20182;-72
2023/08/20 00:29:29;;;;;;;5.32;4.75;;;18.50;99.90;;;;;;5038837;28;20195;-75
2023/08/20 00:32:15;;;;;;;8.68;5.18;;;18.50;99.90;;;;;;5040718;28;20222;-73
2023/08/20 00:34:59;;;;;;;9.02;4.43;;;18.50;99.90;;;;;;5035462;28;20559;-74
2023/08/20 00:37:44;;;;;;;12.02;5.30;;;18.40;99.90;;;;;;5037147;28;20241;-73
2023/08/20 00:40:30;;;;;;;6.68;5.00;;;18.40;99.90;;;;;;5036273;28;20194;-72
2023/08/20 00:43:14;;;;;;;9.32;5.03;;;18.30;99.90;;;;;;5054265;28;20208;-74
2023/08/20 00:45:59;;;;;;;6.85;4.75;;;18.30;99.90;;;;;;5057055;28;20198;-74
2023/08/20 00:48:44;;;;;;;8.48;5.45;;;18.30;99.90;;;;;;5030703;28;20241;-74
2023/08/20 00:51:29;;;;;;;6.45;5.13;;;18.30;99.90;;;;;;5035288;28;20218;-72
2023/08/20 00:54:13;;;;;;;7.05;5.13;;;18.20;99.90;;;;;;5048571;28;20194;-73
2023/08/20 00:56:59;;;;;;;7.47;4.68;;;18.10;99.90;;;;;;5040150;28;20608;-72
2023/08/20 00:59:46;;;;;;;8.30;5.10;;;18.10;99.90;;;;;;5055555;28;20198;-73
2023/08/20 01:02:30;;;;;;;6.95;5.18;;;18.10;99.90;;;;;;5037367;28;20281;-73
2023/08/20 01:05:16;;;;;;;6.22;4.95;;;18.10;99.90;;;;;;5034178;28;20240;-74
2023/08/20 01:08:41;;;;;;;6.50;4.60;;;18.00;99.90;;;;;;5050957;28;20294;-73
2023/08/20 01:11:30;;;;;;;8.95;4.80;;;18.00;99.90;;;;;;5025190;28;20242;-73
2023/08/20 01:14:16;;;;;;;7.32;4.80;;;18.00;99.90;;;;;;5041332;28;20685;-73
2023/08/20 01:17:00;;;;;;;8.35;5.40;;;17.90;99.90;;;;;;5049265;28;20192;-75
2023/08/20 01:19:44;;;;;;;8.77;5.88;;;17.90;99.90;;;;;;5037380;28;20278;-74
2023/08/20 01:22:44;;;;;;;8.50;5.13;;;17.90;99.90;;;;;;5037676;28;20218;-74
2023/08/20 01:26:15;;;;;;;12.05;5.38;;;17.90;99.90;;;;;;5035801;28;20241;-73
2023/08/20 01:29:00;;;;;;;8.05;5.82;;;17.90;99.90;;;;;;5047222;28;20190;-72
2023/08/20 01:31:45;;;;;;;11.57;6.32;;;17.90;99.90;;;;;;5036839;28;21400;-72
2023/08/20 01:34:29;;;;;;;10.52;5.97;;;17.80;99.90;;;;;;5045936;28;20275;-73
2023/08/20 01:37:14;;;;;;;9.02;6.45;;;17.80;99.90;;;;;;5038826;28;20175;-73
2023/08/20 01:39:58;;;;;;;11.10;6.70;;;17.80;99.90;;;;;;5043957;28;20280;-72
2023/08/20 01:42:42;;;;;;;10.63;6.22;;;17.80;99.90;;;;;;5035505;28;20229;-73
2023/08/20 01:45:27;;;;;;;10.13;6.80;;;17.80;99.90;;;;;;5037006;28;20241;-72
2023/08/20 01:48:11;;;;;;;11.88;7.35;;;17.70;99.90;;;;;;5055931;28;20214;-74
2023/08/20 01:50:56;;;;;;;11.23;7.00;;;17.70;99.90;;;;;;5041786;28;20191;-74
2023/08/20 01:53:40;;;;;;;12.98;7.15;;;17.70;99.90;;;;;;5036788;28;20211;-73
2023/08/20 01:56:24;;;;;;;9.80;7.30;;;17.70;99.90;;;;;;5039348;28;20564;-74
2023/08/20 01:59:08;;;;;;;13.13;6.72;;;17.70;99.90;;;;;;5040907;28;20275;-74
2023/08/20 02:01:52;;;;;;;12.10;8.03;;;17.60;99.90;;;;;;5038561;28;20298;-73
2023/08/20 02:04:37;;;;;;;14.35;7.40;;;17.60;99.90;;;;;;5034958;28;20194;-72
2023/08/20 02:07:21;;;;;;;13.07;8.93;;;17.70;99.90;;;;;;5041067;28;20468;-73
2023/08/20 02:10:05;;;;;;;9.23;7.28;;;17.60;99.90;;;;;;5036325;28;20554;-73
2023/08/20 02:12:49;;;;;;;9.43;7.45;;;17.60;99.90;;;;;;5042246;28;20762;-73
2023/08/20 02:15:33;;;;;;;12.13;6.93;;;17.60;99.90;;;;;;5033465;28;20178;-73
2023/08/20 02:18:17;;;;;;;9.18;7.22;;;17.70;99.90;;;;;;5035947;28;20281;-73
2023/08/20 02:21:02;;;;;;;8.60;7.50;;;17.60;99.90;;;;;;5032400;28;20198;-74
2023/08/20 02:23:46;;;;;;;11.02;7.38;;;17.60;99.90;;;;;;5043863;28;20565;-72
2023/08/20 02:26:30;;;;;;;12.90;7.15;;;17.60;99.90;;;;;;5048493;28;20221;-72
2023/08/20 02:29:15;;;;;;;11.93;7.30;;;17.60;99.90;;;;;;5048248;28;20245;-73
2023/08/20 02:31:59;;;;;;;12.13;7.87;;;17.60;99.90;;;;;;5044956;28;20218;-73
2023/08/20 02:34:43;;;;;;;11.37;7.17;;;17.60;99.90;;;;;;5022526;28;20187;-75
2023/08/20 02:37:28;;;;;;;13.82;7.78;;;17.50;99.90;;;;;;5034332;28;20195;-72
2023/08/20 02:40:14;;;;;;;12.45;8.23;;;17.50;99.90;;;;;;5038720;28;20302;-73
2023/08/20 02:42:58;;;;;;;10.57;8.35;;;17.50;99.90;;;;;;5034299;28;20413;-72
2023/08/20 02:45:43;;;;;;;14.13;7.68;;;17.50;99.90;;;;;;5039105;28;20185;-73
2023/08/20 02:48:28;;;;;;;10.15;7.07;;;17.50;99.90;;;;;;5035055;28;20217;-72
2023/08/20 02:51:13;;;;;;;10.07;7.00;;;17.50;99.90;;;;;;5032618;28;20295;-72
2023/08/20 02:53:57;;;;;;;10.90;7.57;;;17.50;99.90;;;;;;5035771;28;20264;-73
2023/08/20 02:56:41;;;;;;;10.68;7.45;;;17.50;99.90;;;;;;5034464;28;20660;-74
2023/08/20 02:59:26;;;;;;;12.60;7.35;;;17.40;99.90;;;;;;5037735;28;20639;-74
2023/08/20 03:02:11;;;;;;;11.30;6.88;;;17.40;99.90;;;;;;5038541;28;20269;-74
2023/08/20 03:04:56;;;;;;;11.65;7.03;;;17.40;99.90;;;;;;5030171;28;20242;-72
2023/08/20 03:07:40;;;;;;;11.17;7.37;;;17.40;99.90;;;;;;5039013;28;20234;-71
2023/08/20 03:10:24;;;;;;;11.93;7.87;;;17.40;99.90;;;;;;5028554;28;20211;-73
2023/08/20 03:13:08;;;;;;;10.93;7.73;;;17.40;99.90;;;;;;5033735;28;20254;-71
2023/08/20 03:15:52;;;;;;;12.45;7.32;;;17.50;99.90;;;;;;5036296;28;20182;-73
2023/08/20 03:18:36;;;;;;;9.23;6.93;;;17.50;99.90;;;;;;5036313;28;20191;-73
2023/08/20 03:21:20;;;;;;;12.30;7.75;;;17.40;99.90;;;;;;5045168;28;20210;-72
2023/08/20 03:24:05;;;;;;;11.85;7.13;;;17.50;99.90;;;;;;5032090;28;20186;-72
2023/08/20 03:26:50;;;;;;;10.63;6.97;;;17.40;99.90;;;;;;5050563;28;20552;-74
2023/08/20 03:29:34;;;;;;;10.73;6.88;;;17.30;99.90;;;;;;5033412;28;20251;-74
2023/08/20 03:32:18;;;;;;;13.82;7.38;;;17.40;99.90;;;;;;5031215;28;20712;-72
2023/08/20 03:35:03;;;;;;;13.77;7.07;;;17.30;99.90;;;;;;5033830;28;20836;-73
2023/08/20 03:37:47;;;;;;;9.23;7.27;;;17.30;99.90;;;;;;5033824;28;20215;-72
2023/08/20 03:40:32;;;;;;;12.47;7.60;;;17.30;99.90;;;;;;5037765;28;20183;-72
2023/08/20 03:43:16;;;;;;;8.68;7.20;;;17.30;99.90;;;;;;5046624;28;20194;-73
2023/08/20 03:46:00;;;;;;;9.00;6.80;;;17.30;99.90;;;;;;5039424;28;20237;-71
2023/08/20 03:48:45;;;;;;;10.70;6.78;;;17.20;99.90;;;;;;5056206;28;20240;-73
2023/08/20 03:51:29;;;;;;;8.32;6.05;;;17.20;99.90;;;;;;5037131;28;20217;-72
2023/08/20 03:54:13;;;;;;;13.20;6.93;;;17.20;99.90;;;;;;5046365;28;20265;-73
2023/08/20 03:56:57;;;;;;;11.32;6.80;;;17.20;99.90;;;;;;5051126;28;20240;-73
2023/08/20 03:59:42;;;;;;;9.13;6.53;;;17.10;99.90;;;;;;5034438;28;20245;-73
2023/08/20 04:02:26;;;;;;;9.13;7.07;;;17.00;99.90;;;;;;5034773;28;20246;-72
2023/08/20 04:05:10;;;;;;;9.70;6.73;;;17.00;99.90;;;;;;5038157;28;20214;-73
2023/08/20 04:07:54;;;;;;;9.90;7.13;;;17.00;99.90;;;;;;5033995;28;20262;-73
2023/08/20 04:10:45;;;;;;;10.00;6.87;;;17.00;99.90;;;;;;5031559;28;20250;-74
2023/08/20 04:13:30;;;;;;;12.53;7.73;;;16.90;99.90;;;;;;5030878;28;20697;-72
2023/08/20 04:16:15;;;;;;;11.35;7.05;;;16.90;99.90;;;;;;5037349;28;20228;-73
2023/08/20 04:18:59;;;;;;;8.90;7.33;;;16.90;99.90;;;;;;5037179;28;20203;-73
2023/08/20 04:21:43;;;;;;;10.53;7.20;;;16.90;99.90;;;;;;5036645;28;20306;-72
2023/08/20 04:24:27;;;;;;;11.90;7.40;;;16.90;99.90;;;;;;5037074;28;20261;-73
2023/08/20 04:27:12;;;;;;;12.37;7.40;;;16.90;99.90;;;;;;5036328;28;20259;-73
2023/08/20 04:29:56;;;;;;;13.77;7.13;;;17.00;99.90;;;;;;5035312;28;20182;-74
2023/08/20 04:32:41;;;;;;;12.97;7.33;;;17.00;99.90;;;;;;5035447;28;20242;-72
2023/08/20 04:35:25;;;;;;;15.53;7.70;;;17.00;99.90;;;;;;5037814;28;20219;-73
2023/08/20 04:38:09;;;;;;;11.87;7.77;;;17.00;99.90;;;;;;5033231;28;20609;-73
2023/08/20 04:40:53;;;;;;;12.10;7.90;;;16.90;99.90;;;;;;5039810;28;20218;-74
2023/08/20 04:43:37;;;;;;;13.68;8.82;;;16.90;99.90;;;;;;5034337;28;20455;-72
2023/08/20 04:46:21;;;;;;;10.73;6.83;;;17.00;99.90;;;;;;5033426;28;20194;-73
2023/08/20 04:49:06;;;;;;;12.30;7.60;;;17.00;99.90;;;;;;5027710;28;20195;-71
2023/08/20 04:51:50;;;;;;;13.30;8.65;;;17.00;99.90;;;;;;5033934;28;20397;-75
2023/08/20 04:54:34;;;;;;;15.07;7.03;;;17.00;99.90;;;;;;5049171;28;20243;-73
2023/08/20 04:57:18;;;;;;;12.63;7.40;;;17.10;99.90;;;;;;5035608;28;20191;-72
2023/08/20 05:00:03;;;;;;;16.63;8.07;;;17.10;99.90;;;;;;5040753;28;20271;-73
2023/08/20 05:02:47;;;;;;;15.68;9.80;;;17.10;99.90;;;;;;5038450;28;20480;-73
2023/08/20 05:05:32;;;;;;;17.40;11.10;;;17.10;99.90;;;;;;5034545;28;20439;-73
2023/08/20 05:08:16;;;;;;;15.15;9.18;;;17.20;99.90;;;;;;5032965;28;20557;-74
2023/08/20 05:11:01;;;;;;;13.13;8.80;;;17.20;99.90;;;;;;5036473;28;20210;-76
2023/08/20 05:13:49;;;;;;;15.63;8.32;;;17.30;99.90;;;;;;5041041;28;20260;-74
2023/08/20 05:16:33;;;;;;;12.30;7.95;;;17.30;99.90;;;;;;5034806;28;20274;-72
2023/08/20 05:19:17;;;;;;;16.85;11.13;;;17.30;99.90;;;;;;5036326;28;20480;-73
2023/08/20 05:22:02;;;;;;;17.83;9.75;;;17.40;99.90;;;;;;5052798;28;20741;-73
2023/08/20 05:24:46;;;;;;;15.50;9.07;;;17.40;99.90;;;;;;5035216;28;20214;-73
2023/08/20 05:27:30;;;;;;;16.70;10.27;;;17.50;99.90;;;;;;5035718;28;20400;-73
2023/08/20 05:30:14;;;;;;;13.52;10.73;;;17.60;99.90;;;;;;5032526;28;21042;-73
2023/08/20 05:32:58;;;;;;;16.13;10.38;;;17.60;99.90;;;;;;5035884;28;20234;-71
2023/08/20 05:35:44;;;;;;;15.63;9.10;;;17.60;99.90;;;;;;5036888;28;20183;-71
2023/08/20 05:38:28;;;;;;;19.50;9.07;;;17.70;99.90;;;;;;5038604;28;20199;-70
2023/08/20 05:41:12;;;;;;;13.57;9.25;;;17.80;99.90;;;;;;5037419;28;20241;-70
2023/08/20 05:43:56;;;;;;;15.75;9.65;;;17.80;99.90;;;;;;5038278;28;20198;-70
2023/08/20 05:46:40;;;;;;;12.43;9.68;;;17.90;99.90;;;;;;5037991;28;20249;-71
2023/08/20 05:49:24;;;;;;;18.67;9.68;;;17.90;99.90;;;;;;5028395;28;20269;-69
2023/08/20 05:52:08;;;;;;;15.25;10.38;;;18.00;99.90;;;;;;5037186;28;20257;-71
2023/08/20 05:54:53;;;;;;;16.65;10.27;;;18.00;99.90;;;;;;5036099;28;20202;-70
2023/08/20 05:57:37;;;;;;;15.02;10.10;;;18.10;99.90;;;;;;5039580;28;20174;-69
2023/08/20 06:00:21;;;;;;;16.42;9.85;;;18.10;99.90;;;;;;5038789;28;20218;-70
2023/08/20 06:03:07;;;;;;;14.20;10.10;;;18.20;99.90;;;;;;5029991;28;20210;-70
2023/08/20 06:05:51;;;;;;;15.65;10.10;;;18.20;99.90;;;;;;5034696;28;20263;-72
2023/08/20 06:08:35;;;;;;;13.65;10.23;;;18.30;99.90;;;;;;5049320;28;20191;-70
2023/08/20 06:11:20;;;;;;;15.07;10.13;;;18.30;99.90;;;;;;5053521;28;20268;-71
2023/08/20 06:14:04;;;;;;;17.10;9.88;;;18.40;99.90;;;;;;5038461;28;20205;-71
2023/08/20 06:16:48;;;;;;;18.50;11.75;;;18.50;99.90;;;;;;5042215;28;20466;-71
2023/08/20 06:19:32;;;;;;;14.57;10.45;;;18.50;99.90;;;;;;5032921;28;20294;-71
2023/08/20 06:22:16;;;;;;;15.32;9.35;;;18.60;99.90;;;;;;5025637;28;20263;-72
2023/08/20 06:25:00;;;;;;;12.70;9.00;;;18.70;99.90;;;;;;5037235;28;20213;-72
2023/08/20 06:27:44;;;;;;;16.77;9.55;;;18.70;99.90;;;;;;5037668;28;20190;-71
2023/08/20 06:30:28;;;;;;;16.30;9.95;;;18.80;99.90;;;;;;5033039;28;20241;-72
2023/08/20 06:33:13;;;;;;;15.80;8.65;;;18.90;99.90;;;;;;5055626;28;20214;-72
2023/08/20 06:35:58;;;;;;;12.63;8.38;;;19.00;99.90;;;;;;5049097;28;20258;-72
2023/08/20 06:38:43;;;;;;;18.70;9.52;;;19.00;99.90;;;;;;5049558;28;20417;-72
2023/08/20 06:41:27;;;;;;;15.93;8.60;;;19.10;99.90;;;;;;5045299;28;20761;-72
2023/08/20 06:44:11;;;;;;;16.60;8.35;;;19.20;99.90;;;;;;5045903;28;20408;-72
2023/08/20 06:46:55;;;;;;;12.35;7.75;;;19.30;99.90;;;;;;5049874;28;20432;-72
2023/08/20 06:49:39;;;;;;;12.05;7.15;;;19.50;99.90;;;;;;5047065;28;20961;-72
2023/08/20 06:52:23;;;;;;;14.85;6.70;;;19.60;99.90;;;;;;5030266;28;20869;-72
2023/08/20 06:55:07;;;;;;;12.25;5.80;;;19.70;99.90;;;;;;5047918;28;20463;-72
2023/08/20 06:57:52;;;;;;;14.23;6.00;;;19.90;99.90;;;;;;5025685;28;20449;-72
2023/08/20 07:00:36;;;;;;;15.93;5.40;;;20.00;99.90;;;;;;5037245;28;20389;-72
2023/08/20 07:03:20;;;;;;;11.05;5.00;;;20.10;99.90;;;;;;5039234;28;20436;-74
2023/08/20 07:06:04;;;;;;;11.10;5.78;;;20.10;99.90;;;;;;5041874;28;20451;-74
2023/08/20 07:08:48;;;;;;;10.48;5.95;;;20.20;99.90;;;;;;5047972;28;20439;-75
2023/08/20 07:11:32;;;;;;;12.15;6.10;;;20.30;99.90;;;;;;5050039;28;20388;-74
2023/08/20 07:14:17;;;;;;;12.40;6.50;;;20.40;99.90;;;;;;5029749;28;20398;-74
2023/08/20 07:17:02;;;;;;;14.30;6.40;;;20.50;99.90;;;;;;5037844;28;20442;-74
2023/08/20 07:19:46;;;;;;;10.48;5.75;;;20.60;99.90;;;;;;5042752;28;20476;-73
2023/08/20 07:22:30;;;;;;;9.73;5.68;;;20.60;99.90;;;;;;5038174;28;20222;-74
2023/08/20 07:25:15;;;;;;;12.05;5.68;;;20.60;99.90;;;;;;5048793;28;20191;-74
2023/08/20 07:27:59;;;;;;;23.08;6.25;;;20.60;99.90;;;;;;5053041;28;20249;-71
2023/08/20 07:30:43;;;;;;;12.73;6.40;;;20.60;99.90;;;;;;5034932;28;20244;-73
2023/08/20 07:33:27;;;;;;;11.90;7.13;;;20.70;99.90;;;;;;5031104;28;20235;-73
2023/08/20 07:36:12;;;;;;;9.85;6.70;;;20.70;99.90;;;;;;5051953;28;20182;-73
2023/08/20 07:38:56;;;;;;;13.18;7.18;;;20.80;99.90;;;;;;5033555;28;20300;-72
2023/08/20 07:41:40;;;;;;;10.65;6.97;;;20.80;99.90;;;;;;5041441;28;20258;-74
2023/08/20 07:44:24;;;;;;;13.00;6.97;;;20.80;99.90;;;;;;5029686;28;20614;-74
2023/08/20 07:47:08;;;;;;;12.88;6.40;;;20.90;99.90;;;;;;5032023;28;20205;-74
2023/08/20 07:49:52;;;;;;;12.05;6.20;;;20.90;99.90;;;;;;5032432;28;20182;-72
2023/08/20 07:52:36;;;;;;;11.55;6.45;;;21.00;99.90;;;;;;5056895;28;20225;-75
2023/08/20 07:55:20;;;;;;;12.13;5.80;;;21.10;99.90;;;;;;5055564;28;20178;-75
2023/08/20 07:58:05;;;;;;;9.73;5.40;;;21.10;99.90;;;;;;5061138;28;20216;-73
2023/08/20 08:00:48;;;;;;;9.68;6.25;;;21.20;99.90;;;;;;5048284;28;20246;-75
2023/08/20 08:03:32;;;;;;;9.40;6.38;;;21.30;99.90;;;;;;5034816;28;20186;-75
2023/08/20 08:06:17;;;;;;;10.70;6.45;;;21.30;99.90;;;;;;5040222;28;20183;-75
2023/08/20 08:09:41;;;;;;;12.38;6.82;;;21.40;99.90;;;;;;5045951;28;20992;-75
2023/08/20 08:12:25;;;;;;;11.05;7.38;;;21.50;99.90;;;;;;5005103;28;20330;-76
2023/08/20 08:15:09;;;;;;;10.70;7.90;;;21.50;99.90;;;;;;5008265;28;20183;-75
2023/08/20 08:17:53;;;;;;;15.05;7.28;;;21.60;99.90;;;;;;5038700;28;20732;-75
2023/08/20 08:20:38;;;;;;;10.90;7.40;;;21.70;99.90;;;;;;5048628;28;20182;-75
2023/08/20 08:23:22;;;;;;;12.02;7.20;;;21.80;99.90;;;;;;5031132;28;20190;-76
2023/08/20 08:26:06;;;;;;;10.88;7.57;;;21.80;99.90;;;;;;5033335;28;20194;-75
2023/08/20 08:28:50;;;;;;;13.43;7.70;;;21.90;99.90;;;;;;5031691;28;20224;-75
2023/08/20 08:31:34;;;;;;;13.88;7.40;;;22.00;99.90;;;;;;5038097;28;20222;-75
2023/08/20 08:34:18;;;;;;;12.80;8.05;;;22.10;99.90;;;;;;5044511;28;20239;-76
2023/08/20 08:37:02;;;;;;;14.05;8.35;;;22.20;99.90;;;;;;5051629;28;20317;-76
2023/08/20 08:39:46;;;;;;;12.45;7.72;;;22.20;99.90;;;;;;5040594;28;20215;-75
2023/08/20 08:42:32;;;;;;;14.60;7.97;;;22.20;99.90;;;;;;5035821;28;20636;-75
2023/08/20 08:45:19;;;;;;;12.13;8.25;;;22.30;99.90;;;;;;5037906;28;20190;-75
2023/08/20 08:48:04;;;;;;;11.60;6.60;;;22.30;99.90;;;;;;5038060;28;20229;-75
2023/08/20 08:50:49;;;;;;;12.05;7.30;;;22.40;99.90;;;;;;5041882;28;20813;-75
2023/08/20 08:53:35;;;;;;;12.18;6.13;;;22.50;99.90;;;;;;5054327;28;20279;-75
2023/08/20 08:56:20;;;;;;;10.27;6.40;;;22.50;99.90;;;;;;5036338;28;20678;-75
2023/08/20 08:59:05;;;;;;;8.15;6.00;;;22.60;99.90;;;;;;5050195;28;20195;-76
2023/08/20 09:01:49;;;;;;;10.98;5.85;;;22.60;99.90;;;;;;5051914;28;20287;-75
2023/08/20 09:04:33;;;;;;;8.15;6.28;;;22.70;99.90;;;;;;5033728;28;20189;-76
2023/08/20 09:07:17;;;;;;;12.70;6.50;;;22.80;99.90;;;;;;5056911;28;20296;-76
2023/08/20 09:10:01;;;;;;;8.98;6.20;;;22.80;99.90;;;;;;5053353;28;20202;-76
2023/08/20 09:12:47;;;;;;;10.82;6.72;;;22.80;99.90;;;;;;5043371;28;20222;-76
2023/08/20 09:15:33;;;;;;;12.10;6.57;;;22.80;99.90;;;;;;5046990;28;20206;-76
2023/08/20 09:18:17;;;;;;;8.90;5.90;;;22.80;99.90;;;;;;5055038;28;20205;-76
2023/08/20 09:21:01;;;;;;;9.68;5.72;;;22.90;99.90;;;;;;5026791;28;20237;-76
2023/08/20 09:23:46;;;;;;;11.13;6.03;;;22.90;99.90;;;;;;5033430;28;20193;-76
2023/08/20 09:26:31;;;;;;;13.63;5.80;;;23.00;99.90;;;;;;5033788;28;20245;-76
2023/08/20 09:29:15;;;;;;;8.30;5.95;;;23.00;99.90;;;;;;5035323;28;20196;-76
2023/08/20 09:32:03;;;;;;;9.02;5.75;;;23.10;99.90;;;;;;5049855;28;20681;-75
2023/08/20 09:34:52;;;;;;;10.73;6.00;;;23.10;99.90;;;;;;5037408;28;20190;-76
2023/08/20 09:37:36;;;;;;;8.77;5.70;;;23.20;99.90;;;;;;5048242;28;20210;-75
2023/08/20 09:40:20;;;;;;;11.00;5.47;;;23.20;99.90;;;;;;5051791;28;20209;-75
2023/08/20 09:43:08;;;;;;;10.82;5.60;;;23.30;99.90;;;;;;5049230;28;20214;-76
2023/08/20 09:45:54;;;;;;;10.27;4.95;;;23.40;99.90;;;;;;5041503;28;20190;-75
2023/08/20 09:48:41;;;;;;;7.55;5.68;;;23.50;99.90;;;;;;5026218;28;20234;-76
2023/08/20 09:51:28;;;;;;;9.02;5.47;;;23.60;99.90;;;;;;5059731;28;20278;-74
2023/08/20 09:54:34;;;;;;;11.57;5.20;;;23.70;99.90;;;;;;5037331;28;20254;-76
2023/08/20 09:57:30;;;;;;;8.57;4.93;;;23.70;99.90;;;;;;5050518;28;20234;-76
2023/08/20 10:00:15;;;;;;;8.38;5.07;;;23.80;99.90;;;;;;5063893;28;20661;-76
2023/08/20 10:02:59;;;;;;;5.72;4.68;;;23.90;99.90;;;;;;5054483;28;20210;-76
2023/08/20 10:05:46;;;;;;;8.77;4.50;;;23.90;99.90;;;;;;5037979;28;20201;-76
2023/08/20 10:08:31;;;;;;;7.13;4.07;;;23.90;99.90;;;;;;5051781;28;20189;-76
2023/08/20 10:11:15;;;;;;;6.32;3.72;;;23.90;99.90;;;;;;5052436;28;20701;-75
2023/08/20 10:13:59;;;;;;;8.90;4.35;;;23.90;99.90;;;;;;5048561;28;20215;-76
2023/08/20 10:16:43;;;;;;;6.82;4.13;;;23.90;99.90;;;;;;5041462;28;20209;-76
2023/08/20 10:19:28;;;;;;;8.10;4.47;;;23.90;99.90;;;;;;5050555;28;20241;-76
2023/08/20 10:22:12;;;;;;;9.70;3.42;;;24.00;99.90;;;;;;5035756;28;20218;-75
2023/08/20 10:24:57;;;;;;;9.23;3.75;;;24.10;99.90;;;;;;5036123;28;20197;-76
2023/08/20 10:27:45;;;;;;;5.90;3.70;;;24.20;99.90;;;;;;5041132;28;20209;-75
2023/08/20 10:30:29;;;;;;;8.15;3.85;;;24.30;99.90;;;;;;5048595;28;20189;-76
2023/08/20 10:33:14;;;;;;;6.88;3.78;;;24.40;99.90;;;;;;5035622;28;20241;-76
2023/08/20 10:36:07;;;;;;;7.25;3.58;;;24.50;99.90;;;;;;5033665;28;20186;-76
2023/08/20 10:38:55;;;;;;;7.85;3.78;;;24.50;99.90;;;;;;5034612;28;20249;-77
2023/08/20 10:41:39;;;;;;;7.88;3.83;;;24.60;99.90;;;;;;5049440;28;20269;-76
2023/08/20 10:44:24;;;;;;;6.90;3.90;;;24.60;99.90;;;;;;5035628;28;20199;-76
2023/08/20 10:47:08;;;;;;;7.32;3.65;;;24.50;99.90;;;;;;5030004;28;20218;-76
2023/08/20 10:49:55;;;;;;;9.32;4.15;;;24.50;99.90;;;;;;5053763;28;20215;-76
2023/08/20 10:52:41;;;;;;;6.95;3.58;;;24.50;99.90;;;;;;5039729;28;20724;-76
2023/08/20 10:55:25;;;;;;;9.75;3.65;;;24.50;99.90;;;;;;5038676;28;20186;-77
2023/08/20 10:58:09;;;;;;;7.88;3.58;;;24.50;99.90;;;;;;5047665;28;20178;-76
2023/08/20 11:01:13;;;;;;;4.65;3.40;;;24.60;99.90;;;;;;5045112;28;20244;-76
2023/08/20 11:04:00;;;;;;;8.07;3.72;;;24.60;99.90;;;;;;5043809;28;20245;-77
2023/08/20 11:06:45;;;;;;;7.05;3.90;;;24.70;99.90;;;;;;5055006;28;20209;-76
2023/08/20 11:09:30;;;;;;;5.90;3.80;;;24.70;99.90;;;;;;5035573;28;20284;-76
2023/08/20 11:12:15;;;;;;;8.88;3.95;;;24.70;99.90;;;;;;5035040;28;20233;-76
2023/08/20 11:15:01;;;;;;;8.50;4.20;;;24.70;99.90;;;;;;5048420;28;20586;-76
2023/08/20 11:17:47;;;;;;;8.98;3.80;;;24.70;99.90;;;;;;5030964;28;20235;-76
2023/08/20 11:20:31;;;;;;;7.65;3.40;;;24.90;99.90;;;;;;5040118;28;20179;-77
2023/08/20 11:23:16;;;;;;;4.43;3.20;;;24.90;99.90;;;;;;5049327;28;20294;-77
2023/08/20 11:26:02;;;;;;;6.10;3.85;;;25.00;99.90;;;;;;5034944;28;20716;-77
2023/08/20 11:28:46;;;;;;;5.30;3.83;;;25.00;99.90;;;;;;5028764;28;20202;-77
2023/08/20 11:31:31;;;;;;;5.70;3.38;;;25.00;99.90;;;;;;5043751;28;20308;-76
2023/08/20 11:34:16;;;;;;;6.07;2.90;;;25.00;99.90;;;;;;5047537;28;20227;-77
2023/08/20 11:37:00;;;;;;;8.98;2.78;;;24.90;99.90;;;;;;5026990;28;20191;-77
2023/08/20 11:39:44;;;;;;;7.10;3.30;;;24.90;99.90;;;;;;5038858;28;20293;-76
2023/08/20 11:42:28;;;;;;;8.40;3.78;;;25.00;99.90;;;;;;5035871;28;20269;-76
2023/08/20 11:45:12;;;;;;;8.77;3.20;;;25.00;99.90;;;;;;5035372;28;20218;-74
2023/08/20 11:47:57;;;;;;;4.72;2.97;;;25.00;99.90;;;;;;5051077;28;20241;-74
2023/08/20 11:50:42;;;;;;;5.03;2.88;;;25.10;99.90;;;;;;5030429;28;20659;-77
2023/08/20 11:53:28;;;;;;;6.70;2.95;;;25.10;99.90;;;;;;5033980;28;20756;-77
2023/08/20 11:56:14;;;;;;;8.48;2.97;;;25.10;99.90;;;;;;5049927;28;20661;-76
2023/08/20 11:59:02;;;;;;;6.32;3.05;;;25.20;99.90;;;;;;5032724;28;20177;-77
2023/08/20 12:02:00;;;;;;;4.50;2.80;;;25.30;99.90;;;;;;5033385;28;20210;-76
2023/08/20 12:04:50;;;;;;;7.78;3.10;;;25.30;99.90;;;;;;5051227;28;20182;-77
2023/08/20 12:07:34;;;;;;;10.50;3.25;;;25.20;99.90;;;;;;5029795;28;20221;-76
2023/08/20 12:10:22;;;;;;;6.80;2.70;;;25.20;99.90;;;;;;5032121;28;20195;-76
2023/08/20 12:13:08;;;;;;;4.65;2.55;;;25.20;99.90;;;;;;5046458;28;20218;-76
2023/08/20 12:15:52;;;;;;;5.60;2.60;;;25.20;99.90;;;;;;5050352;28;20183;-77
2023/08/20 12:18:36;;;;;;;4.28;2.55;;;25.30;99.90;;;;;;5052650;28;20730;-77
2023/08/20 12:21:20;;;;;;;6.55;2.88;;;25.50;99.90;;;;;;5038314;28;20321;-77
2023/08/20 12:24:05;;;;;;;4.90;3.00;;;25.60;99.90;;;;;;5039028;28;20190;-77
2023/08/20 12:26:50;;;;;;;6.07;2.80;;;25.60;99.90;;;;;;5048048;28;20190;-77
2023/08/20 12:29:34;;;;;;;5.25;2.95;;;25.60;99.90;;;;;;5052407;28;20242;-76
2023/08/20 12:32:18;;;;;;;5.15;2.95;;;25.70;99.90;;;;;;5059052;28;20229;-76
2023/08/20 12:35:02;;;;;;;8.00;3.47;;;25.70;99.90;;;;;;5058760;28;20195;-76
2023/08/20 12:37:46;;;;;;;5.38;2.80;;;25.70;99.90;;;;;;5037404;28;20225;-76
2023/08/20 12:40:30;;;;;;;3.55;2.22;;;25.80;99.90;;;;;;5045054;28;20194;-76
2023/08/20 12:43:14;;;;;;;4.80;2.42;;;25.80;99.90;;;;;;5047423;28;20194;-76
2023/08/20 12:45:59;;;;;;;4.82;2.25;;;25.80;99.90;;;;;;5049004;28;20190;-77
2023/08/20 12:48:43;;;;;;;6.80;2.70;;;25.90;99.90;;;;;;5045988;28;20219;-77
2023/08/20 12:51:27;;;;;;;5.60;2.85;;;25.90;99.90;;;;;;5058405;28;20281;-77
2023/08/20 12:54:12;;;;;;;5.88;2.67;;;25.90;99.90;;;;;;5039481;28;20214;-76
2023/08/20 12:56:56;;;;;;;6.60;3.05;;;26.00;99.90;;;;;;5038678;28;20202;-76
2023/08/20 12:59:41;;;;;;;6.55;2.90;;;26.00;99.90;;;;;;5044317;28;20202;-77
2023/08/20 13:02:25;;;;;;;5.28;2.45;;;26.00;99.90;;;;;;5037874;28;20226;-77
2023/08/20 13:05:11;;;;;;;4.38;2.55;;;25.90;99.90;;;;;;5035366;28;20309;-76
2023/08/20 13:07:55;;;;;;;4.25;2.35;;;26.00;99.90;;;;;;5038710;28;20202;-77
2023/08/20 13:10:40;;;;;;;5.70;2.42;;;26.10;99.90;;;;;;5053859;28;20266;-76
2023/08/20 13:13:25;;;;;;;7.55;2.50;;;26.20;99.90;;;;;;5035597;28;20230;-77
2023/08/20 13:16:10;;;;;;;4.45;2.72;;;26.20;99.90;;;;;;5035781;28;20441;-77
2023/08/20 13:18:54;;;;;;;4.65;2.38;;;26.20;99.90;;;;;;5035109;28;20191;-76
2023/08/20 13:21:38;;;;;;;4.63;2.70;;;26.20;99.90;;;;;;5057882;28;20252;-77
2023/08/20 13:24:22;;;;;;;6.97;2.85;;;26.20;99.90;;;;;;5044261;28;20211;-78
2023/08/20 13:27:06;;;;;;;6.93;2.28;;;26.10;99.90;;;;;;5032949;28;20218;-77
2023/08/20 13:29:50;;;;;;;5.57;2.58;;;26.10;99.90;;;;;;5051420;28;20193;-76
2023/08/20 13:32:38;;;;;;;4.38;2.47;;;26.10;99.90;;;;;;5050028;28;20261;-77
2023/08/20 13:35:22;;;;;;;4.47;2.65;;;26.20;99.90;;;;;;5057260;28;20187;-77
2023/08/20 13:38:07;;;;;;;8.93;2.55;;;26.10;99.90;;;;;;5052207;28;20241;-76
2023/08/20 13:40:51;;;;;;;4.47;2.22;;;26.10;99.90;;;;;;5036409;28;20207;-76
2023/08/20 13:43:35;;;;;;;5.05;2.72;;;26.10;99.90;;;;;;5034776;28;20202;-76
2023/08/20 13:46:19;;;;;;;4.50;2.53;;;26.10;99.90;;;;;;5049549;28;20198;-74
2023/08/20 13:49:03;;;;;;;5.95;2.50;;;26.20;99.90;;;;;;5031245;28;20182;-73
2023/08/20 13:51:47;;;;;;;5.28;2.47;;;26.00;99.90;;;;;;5038618;28;20280;-73
2023/08/20 13:54:32;;;;;;;4.60;2.17;;;26.10;99.90;;;;;;5036139;28;20727;-74
2023/08/20 13:57:16;;;;;;;8.55;2.63;;;26.10;99.90;;;;;;5035129;28;20199;-75
2023/08/20 14:00:00;;;;;;;11.73;2.53;;;26.20;99.90;;;;;;5054973;28;20245;-74
2023/08/20 14:02:44;;;;;;;6.15;2.55;;;26.30;99.90;;;;;;5049795;28;20583;-75
2023/08/20 14:05:29;;;;;;;5.45;2.40;;;26.30;99.90;;;;;;5052903;28;20187;-74
2023/08/20 14:08:13;;;;;;;4.13;2.20;;;26.40;99.90;;;;;;5047933;28;20190;-75
2023/08/20 14:10:57;;;;;;;3.75;2.05;;;26.50;99.90;;;;;;5038699;28;20374;-75
2023/08/20 14:13:42;;;;;;;5.43;2.30;;;26.60;99.90;;;;;;5034605;28;20620;-74